sensor_id;sensor_type;location;lat;lon;timestamp;temperature;humidity
41592;DHT22;28026;48.562;14.440;2022-07-10T00:01:56;14.10;99.90
41592;DHT22;28026;48.562;14.440;2022-07-10T00:04:27;14.10;99.90
41592;DHT22;28026;48.562;14.440;2022-07-10T00:06:58;14.00;99.90
41592;DHT22;28026;48.562;14.440;2022-07-10T00:09:29;13.90;99.90
41592;DHT22;28026;48.562;14.440;2022-07-10T00:12:00;14.00;99.90
41592;DHT22;28026;48.562;14.440;2022-07-10T00:14:31;13.80;99.90
41592;DHT22;28026;48.562;14.440;2022-07-10T00:17:02;13.70;99.90
41592;DHT22;28026;48.562;14.440;2022-07-10T00:19:34;13.60;99.90
41592;DHT22;28026;48.562;14.440;2022-07-10T00:22:05;13.60;99.90
41592;DHT22;28026;48.562;14.440;2022-07-10T00:24:37;13.60;99.90
41592;DHT22;28026;48.562;14.440;2022-07-10T00:27:08;13.60;99.90
41592;DHT22;28026;48.562;14.440;2022-07-10T00:29:38;13.60;99.90
41592;DHT22;28026;48.562;14.440;2022-07-10T00:32:10;13.60;99.90
41592;DHT22;28026;48.562;14.440;2022-07-10T00:34:41;13.50;99.90
41592;DHT22;28026;48.562;14.440;2022-07-10T00:37:12;13.50;99.90
41592;DHT22;28026;48.562;14.440;2022-07-10T00:39:43;13.40;99.90
41592;DHT22;28026;48.562;14.440;2022-07-10T00:42:14;13.40;99.90
41592;DHT22;28026;48.562;14.440;2022-07-10T00:44:46;13.30;99.90
41592;DHT22;28026;48.562;14.440;2022-07-10T00:47:17;13.20;99.90
41592;DHT22;28026;48.562;14.440;2022-07-10T00:49:49;13.10;99.90
41592;DHT22;28026;48.562;14.440;2022-07-10T00:52:21;13.20;99.90
41592;DHT22;28026;48.562;14.440;2022-07-10T00:54:53;13.30;99.90
41592;DHT22;28026;48.562;14.440;2022-07-10T00:57:24;13.40;99.90
41592;DHT22;28026;48.562;14.440;2022-07-10T00:59:55;13.40;99.90
41592;DHT22;28026;48.562;14.440;2022-07-10T01:02:26;13.50;99.90
41592;DHT22;28026;48.562;14.440;2022-07-10T01:04:57;13.50;99.90
41592;DHT22;28026;48.562;14.440;2022-07-10T01:07:28;13.40;99.90
41592;DHT22;28026;48.562;14.440;2022-07-10T01:10:01;13.40;99.90
41592;DHT22;28026;48.562;14.440;2022-07-10T01:12:34;13.40;99.90
41592;DHT22;28026;48.562;14.440;2022-07-10T01:15:07;13.40;99.90
41592;DHT22;28026;48.562;14.440;2022-07-10T01:17:38;13.50;99.90
41592;DHT22;28026;48.562;14.440;2022-07-10T01:20:10;13.50;99.90
41592;DHT22;28026;48.562;14.440;2022-07-10T01:22:41;13.40;99.90
41592;DHT22;28026;48.562;14.440;2022-07-10T01:25:12;13.50;99.90
41592;DHT22;28026;48.562;14.440;2022-07-10T01:27:43;13.50;99.90
41592;DHT22;28026;48.562;14.440;2022-07-10T01:30:14;13.50;99.90
41592;DHT22;28026;48.562;14.440;2022-07-10T01:32:45;13.50;99.90
41592;DHT22;28026;48.562;14.440;2022-07-10T01:35:17;13.50;99.90
41592;DHT22;28026;48.562;14.440;2022-07-10T01:37:49;13.50;99.90
41592;DHT22;28026;48.562;14.440;2022-07-10T01:40:20;13.50;99.90
41592;DHT22;28026;48.562;14.440;2022-07-10T01:42:51;13.60;99.90
41592;DHT22;28026;48.562;14.440;2022-07-10T01:45:22;13.50;99.90
41592;DHT22;28026;48.562;14.440;2022-07-10T01:47:53;13.50;99.90
41592;DHT22;28026;48.562;14.440;2022-07-10T01:50:24;13.50;99.90
41592;DHT22;28026;48.562;14.440;2022-07-10T01:52:56;13.50;99.90
41592;DHT22;28026;48.562;14.440;2022-07-10T01:55:27;13.40;99.90
41592;DHT22;28026;48.562;14.440;2022-07-10T01:57:59;13.40;99.90
41592;DHT22;28026;48.562;14.440;2022-07-10T02:00:29;13.40;99.90
41592;DHT22;28026;48.562;14.440;2022-07-10T02:03:00;13.20;99.90
41592;DHT22;28026;48.562;14.440;2022-07-10T02:05:50;13.20;99.90
41592;DHT22;28026;48.562;14.440;2022-07-10T02:08:21;13.10;99.90
41592;DHT22;28026;48.562;14.440;2022-07-10T02:10:52;13.10;99.90
41592;DHT22;28026;48.562;14.440;2022-07-10T02:13:23;13.20;99.90
41592;DHT22;28026;48.562;14.440;2022-07-10T02:15:56;13.30;99.90
41592;DHT22;28026;48.562;14.440;2022-07-10T02:18:27;13.40;99.90
41592;DHT22;28026;48.562;14.440;2022-07-10T02:20:58;13.30;99.90
41592;DHT22;28026;48.562;14.440;2022-07-10T02:23:28;13.40;99.90
41592;DHT22;28026;48.562;14.440;2022-07-10T02:26:00;13.40;99.90
41592;DHT22;28026;48.562;14.440;2022-07-10T02:28:31;13.30;99.90
41592;DHT22;28026;48.562;14.440;2022-07-10T02:31:02;13.30;99.90
41592;DHT22;28026;48.562;14.440;2022-07-10T02:33:33;13.30;99.90
41592;DHT22;28026;48.562;14.440;2022-07-10T02:36:05;13.30;99.90
41592;DHT22;28026;48.562;14.440;2022-07-10T02:38:36;13.20;99.90
41592;DHT22;28026;48.562;14.440;2022-07-10T02:41:07;13.20;99.90
41592;DHT22;28026;48.562;14.440;2022-07-10T02:43:38;13.20;99.90
41592;DHT22;28026;48.562;14.440;2022-07-10T02:46:09;13.20;99.90
41592;DHT22;28026;48.562;14.440;2022-07-10T02:48:40;13.10;99.90
41592;DHT22;28026;48.562;14.440;2022-07-10T02:51:11;12.90;99.90
41592;DHT22;28026;48.562;14.440;2022-07-10T02:53:42;12.70;99.90
41592;DHT22;28026;48.562;14.440;2022-07-10T02:56:13;12.50;99.90
41592;DHT22;28026;48.562;14.440;2022-07-10T02:58:44;12.40;99.90
41592;DHT22;28026;48.562;14.440;2022-07-10T03:01:15;12.50;99.90
41592;DHT22;28026;48.562;14.440;2022-07-10T03:03:46;12.60;99.90
41592;DHT22;28026;48.562;14.440;2022-07-10T03:06:17;12.70;99.90
41592;DHT22;28026;48.562;14.440;2022-07-10T03:08:48;12.80;99.90
41592;DHT22;28026;48.562;14.440;2022-07-10T03:11:19;12.90;99.90
41592;DHT22;28026;48.562;14.440;2022-07-10T03:13:49;13.10;99.90
41592;DHT22;28026;48.562;14.440;2022-07-10T03:16:20;13.00;99.90
41592;DHT22;28026;48.562;14.440;2022-07-10T03:18:51;13.00;99.90
41592;DHT22;28026;48.562;14.440;2022-07-10T03:21:22;13.00;99.90
41592;DHT22;28026;48.562;14.440;2022-07-10T03:23:54;13.10;99.90
41592;DHT22;28026;48.562;14.440;2022-07-10T03:26:25;13.10;99.90
41592;DHT22;28026;48.562;14.440;2022-07-10T03:28:57;13.10;99.90
41592;DHT22;28026;48.562;14.440;2022-07-10T03:31:28;13.20;99.90
41592;DHT22;28026;48.562;14.440;2022-07-10T03:33:58;13.30;99.90
41592;DHT22;28026;48.562;14.440;2022-07-10T03:36:29;13.30;99.90
41592;DHT22;28026;48.562;14.440;2022-07-10T03:39:00;13.30;99.90
41592;DHT22;28026;48.562;14.440;2022-07-10T03:41:31;13.30;99.90
41592;DHT22;28026;48.562;14.440;2022-07-10T03:44:03;13.20;99.90
41592;DHT22;28026;48.562;14.440;2022-07-10T03:46:34;13.10;99.90
41592;DHT22;28026;48.562;14.440;2022-07-10T03:49:05;13.10;99.90
41592;DHT22;28026;48.562;14.440;2022-07-10T03:51:36;13.10;99.90
41592;DHT22;28026;48.562;14.440;2022-07-10T03:54:07;13.10;99.90
41592;DHT22;28026;48.562;14.440;2022-07-10T03:56:38;13.20;99.90
41592;DHT22;28026;48.562;14.440;2022-07-10T03:59:28;13.10;99.90
41592;DHT22;28026;48.562;14.440;2022-07-10T04:01:59;13.10;99.90
41592;DHT22;28026;48.562;14.440;2022-07-10T04:04:30;13.20;99.90
41592;DHT22;28026;48.562;14.440;2022-07-10T04:07:01;13.10;99.90
41592;DHT22;28026;48.562;14.440;2022-07-10T04:09:34;13.00;99.90
41592;DHT22;28026;48.562;14.440;2022-07-10T04:12:05;12.80;99.90
41592;DHT22;28026;48.562;14.440;2022-07-10T04:14:36;12.80;99.90
41592;DHT22;28026;48.562;14.440;2022-07-10T04:17:07;12.80;99.90
41592;DHT22;28026;48.562;14.440;2022-07-10T04:19:39;12.90;99.90
41592;DHT22;28026;48.562;14.440;2022-07-10T04:22:10;13.00;99.90
41592;DHT22;28026;48.562;14.440;2022-07-10T04:24:41;13.10;99.90
41592;DHT22;28026;48.562;14.440;2022-07-10T04:27:11;13.20;99.90
41592;DHT22;28026;48.562;14.440;2022-07-10T04:29:43;13.20;99.90
41592;DHT22;28026;48.562;14.440;2022-07-10T04:32:17;13.20;99.90
41592;DHT22;28026;48.562;14.440;2022-07-10T04:34:48;13.10;99.90
41592;DHT22;28026;48.562;14.440;2022-07-10T04:37:19;13.00;99.90
41592;DHT22;28026;48.562;14.440;2022-07-10T04:39:50;13.00;99.90
41592;DHT22;28026;48.562;14.440;2022-07-10T04:42:21;13.10;99.90
41592;DHT22;28026;48.562;14.440;2022-07-10T04:44:52;13.10;99.90
41592;DHT22;28026;48.562;14.440;2022-07-10T04:47:23;13.20;99.90
41592;DHT22;28026;48.562;14.440;2022-07-10T04:49:54;13.20;99.90
41592;DHT22;28026;48.562;14.440;2022-07-10T04:52:25;13.30;99.90
41592;DHT22;28026;48.562;14.440;2022-07-10T04:54:56;13.40;99.90
41592;DHT22;28026;48.562;14.440;2022-07-10T04:57:26;13.50;99.90
41592;DHT22;28026;48.562;14.440;2022-07-10T04:59:58;13.50;99.90
41592;DHT22;28026;48.562;14.440;2022-07-10T05:02:29;13.60;99.90
41592;DHT22;28026;48.562;14.440;2022-07-10T05:04:59;13.70;99.90
41592;DHT22;28026;48.562;14.440;2022-07-10T05:07:30;13.80;99.90
41592;DHT22;28026;48.562;14.440;2022-07-10T05:10:01;14.00;99.90
41592;DHT22;28026;48.562;14.440;2022-07-10T05:12:33;13.90;99.90
41592;DHT22;28026;48.562;14.440;2022-07-10T05:15:04;13.90;99.90
41592;DHT22;28026;48.562;14.440;2022-07-10T05:17:36;13.90;99.90
41592;DHT22;28026;48.562;14.440;2022-07-10T05:20:07;13.80;99.90
41592;DHT22;28026;48.562;14.440;2022-07-10T05:22:39;14.00;99.90
41592;DHT22;28026;48.562;14.440;2022-07-10T05:25:10;13.90;99.90
41592;DHT22;28026;48.562;14.440;2022-07-10T05:27:40;13.90;99.90
41592;DHT22;28026;48.562;14.440;2022-07-10T05:30:11;14.00;99.90
41592;DHT22;28026;48.562;14.440;2022-07-10T05:32:43;14.00;99.90
41592;DHT22;28026;48.562;14.440;2022-07-10T05:35:16;14.00;99.90
41592;DHT22;28026;48.562;14.440;2022-07-10T05:37:47;14.10;99.90
41592;DHT22;28026;48.562;14.440;2022-07-10T05:40:18;14.10;99.90
41592;DHT22;28026;48.562;14.440;2022-07-10T05:42:49;14.00;99.90
41592;DHT22;28026;48.562;14.440;2022-07-10T05:45:20;13.90;99.90
41592;DHT22;28026;48.562;14.440;2022-07-10T05:47:51;13.80;99.90
41592;DHT22;28026;48.562;14.440;2022-07-10T05:50:22;13.80;99.90
41592;DHT22;28026;48.562;14.440;2022-07-10T05:52:53;13.70;99.90
41592;DHT22;28026;48.562;14.440;2022-07-10T05:55:24;13.70;99.90
41592;DHT22;28026;48.562;14.440;2022-07-10T05:57:56;13.70;99.90
41592;DHT22;28026;48.562;14.440;2022-07-10T06:00:26;13.70;99.90
41592;DHT22;28026;48.562;14.440;2022-07-10T06:02:57;13.70;99.90
41592;DHT22;28026;48.562;14.440;2022-07-10T06:05:29;13.70;99.90
41592;DHT22;28026;48.562;14.440;2022-07-10T06:08:00;13.80;99.90
41592;DHT22;28026;48.562;14.440;2022-07-10T06:10:31;14.00;99.90
41592;DHT22;28026;48.562;14.440;2022-07-10T06:13:02;14.20;99.90
41592;DHT22;28026;48.562;14.440;2022-07-10T06:15:33;14.30;99.90
41592;DHT22;28026;48.562;14.440;2022-07-10T06:18:04;14.40;99.90
41592;DHT22;28026;48.562;14.440;2022-07-10T06:20:35;14.30;99.90
41592;DHT22;28026;48.562;14.440;2022-07-10T06:23:06;14.20;99.90
41592;DHT22;28026;48.562;14.440;2022-07-10T06:25:37;14.10;99.90
41592;DHT22;28026;48.562;14.440;2022-07-10T06:28:08;14.10;99.90
41592;DHT22;28026;48.562;14.440;2022-07-10T06:30:39;14.10;99.90
41592;DHT22;28026;48.562;14.440;2022-07-10T06:33:10;14.10;99.90
41592;DHT22;28026;48.562;14.440;2022-07-10T06:35:41;13.90;99.90
41592;DHT22;28026;48.562;14.440;2022-07-10T06:38:12;14.00;99.90
41592;DHT22;28026;48.562;14.440;2022-07-10T06:40:43;14.10;99.90
41592;DHT22;28026;48.562;14.440;2022-07-10T06:43:17;14.10;99.90
41592;DHT22;28026;48.562;14.440;2022-07-10T06:45:48;14.00;99.90
41592;DHT22;28026;48.562;14.440;2022-07-10T06:48:20;14.00;99.90
41592;DHT22;28026;48.562;14.440;2022-07-10T06:50:51;13.70;99.90
41592;DHT22;28026;48.562;14.440;2022-07-10T06:53:22;13.50;99.90
41592;DHT22;28026;48.562;14.440;2022-07-10T06:55:57;13.50;99.90
41592;DHT22;28026;48.562;14.440;2022-07-10T06:58:28;13.30;99.90
41592;DHT22;28026;48.562;14.440;2022-07-10T07:00:59;13.20;99.90
41592;DHT22;28026;48.562;14.440;2022-07-10T07:03:30;13.10;99.90
41592;DHT22;28026;48.562;14.440;2022-07-10T07:06:01;13.10;99.90
41592;DHT22;28026;48.562;14.440;2022-07-10T07:08:32;13.20;99.90
41592;DHT22;28026;48.562;14.440;2022-07-10T07:11:07;13.40;99.90
41592;DHT22;28026;48.562;14.440;2022-07-10T07:13:37;13.50;99.90
41592;DHT22;28026;48.562;14.440;2022-07-10T07:16:08;13.50;99.90
41592;DHT22;28026;48.562;14.440;2022-07-10T07:18:40;13.50;99.90
41592;DHT22;28026;48.562;14.440;2022-07-10T07:21:18;13.50;99.90
41592;DHT22;28026;48.562;14.440;2022-07-10T07:24:07;13.50;99.90
41592;DHT22;28026;48.562;14.440;2022-07-10T07:26:38;13.30;99.90
41592;DHT22;28026;48.562;14.440;2022-07-10T07:29:09;13.10;99.90
41592;DHT22;28026;48.562;14.440;2022-07-10T07:31:40;13.00;99.90
41592;DHT22;28026;48.562;14.440;2022-07-10T07:34:11;12.90;99.90
41592;DHT22;28026;48.562;14.440;2022-07-10T07:36:42;12.90;99.90
41592;DHT22;28026;48.562;14.440;2022-07-10T07:39:13;12.80;99.90
41592;DHT22;28026;48.562;14.440;2022-07-10T07:41:44;12.80;99.90
41592;DHT22;28026;48.562;14.440;2022-07-10T07:44:15;12.80;99.90
41592;DHT22;28026;48.562;14.440;2022-07-10T07:46:48;12.70;99.90
41592;DHT22;28026;48.562;14.440;2022-07-10T07:49:18;12.90;99.90
41592;DHT22;28026;48.562;14.440;2022-07-10T07:51:49;12.90;99.90
41592;DHT22;28026;48.562;14.440;2022-07-10T07:54:20;12.80;99.90
41592;DHT22;28026;48.562;14.440;2022-07-10T07:56:51;12.80;99.90
41592;DHT22;28026;48.562;14.440;2022-07-10T07:59:22;12.80;99.90
41592;DHT22;28026;48.562;14.440;2022-07-10T08:01:53;12.70;99.90
41592;DHT22;28026;48.562;14.440;2022-07-10T08:04:24;12.60;99.90
41592;DHT22;28026;48.562;14.440;2022-07-10T08:06:55;12.80;99.90
41592;DHT22;28026;48.562;14.440;2022-07-10T08:09:26;13.00;99.90
41592;DHT22;28026;48.562;14.440;2022-07-10T08:11:57;13.00;99.90
41592;DHT22;28026;48.562;14.440;2022-07-10T08:14:28;13.00;99.90
41592;DHT22;28026;48.562;14.440;2022-07-10T08:16:59;12.90;99.90
41592;DHT22;28026;48.562;14.440;2022-07-10T08:19:30;12.90;99.90
41592;DHT22;28026;48.562;14.440;2022-07-10T08:22:01;13.00;99.90
41592;DHT22;28026;48.562;14.440;2022-07-10T08:24:32;13.20;99.90
41592;DHT22;28026;48.562;14.440;2022-07-10T08:27:04;13.40;99.90
41592;DHT22;28026;48.562;14.440;2022-07-10T08:29:38;13.80;99.90
41592;DHT22;28026;48.562;14.440;2022-07-10T08:32:09;13.70;99.90
41592;DHT22;28026;48.562;14.440;2022-07-10T08:34:40;13.30;99.90
41592;DHT22;28026;48.562;14.440;2022-07-10T08:37:11;13.00;99.90
41592;DHT22;28026;48.562;14.440;2022-07-10T08:39:42;12.70;99.90
41592;DHT22;28026;48.562;14.440;2022-07-10T08:42:15;12.60;99.90
41592;DHT22;28026;48.562;14.440;2022-07-10T08:44:48;12.90;99.90
41592;DHT22;28026;48.562;14.440;2022-07-10T08:47:21;13.10;99.90
41592;DHT22;28026;48.562;14.440;2022-07-10T08:49:53;14.10;99.90
41592;DHT22;28026;48.562;14.440;2022-07-10T08:52:33;15.00;99.90
41592;DHT22;28026;48.562;14.440;2022-07-10T08:55:15;16.20;99.90
41592;DHT22;28026;48.562;14.440;2022-07-10T08:57:46;16.20;99.90
41592;DHT22;28026;48.562;14.440;2022-07-10T09:00:19;16.20;99.90
41592;DHT22;28026;48.562;14.440;2022-07-10T09:02:50;15.90;99.90
41592;DHT22;28026;48.562;14.440;2022-07-10T09:05:26;15.80;99.90
41592;DHT22;28026;48.562;14.440;2022-07-10T09:07:58;15.70;99.90
41592;DHT22;28026;48.562;14.440;2022-07-10T09:10:29;15.50;99.90
41592;DHT22;28026;48.562;14.440;2022-07-10T09:13:01;15.80;99.90
41592;DHT22;28026;48.562;14.440;2022-07-10T09:15:32;15.90;99.90
41592;DHT22;28026;48.562;14.440;2022-07-10T09:18:05;16.10;99.90
41592;DHT22;28026;48.562;14.440;2022-07-10T09:20:39;15.90;99.90
41592;DHT22;28026;48.562;14.440;2022-07-10T09:23:17;15.70;99.90
41592;DHT22;28026;48.562;14.440;2022-07-10T09:25:52;15.70;99.90
41592;DHT22;28026;48.562;14.440;2022-07-10T09:28:23;15.70;99.90
41592;DHT22;28026;48.562;14.440;2022-07-10T09:30:54;16.00;99.90
41592;DHT22;28026;48.562;14.440;2022-07-10T09:33:28;15.90;99.90
41592;DHT22;28026;48.562;14.440;2022-07-10T09:36:11;15.80;99.90
41592;DHT22;28026;48.562;14.440;2022-07-10T09:41:28;15.40;99.90
41592;DHT22;28026;48.562;14.440;2022-07-10T09:44:05;15.00;99.90
41592;DHT22;28026;48.562;14.440;2022-07-10T09:46:41;15.20;99.90
41592;DHT22;28026;48.562;14.440;2022-07-10T09:49:14;15.60;99.90
41592;DHT22;28026;48.562;14.440;2022-07-10T09:51:46;16.10;99.90
41592;DHT22;28026;48.562;14.440;2022-07-10T09:54:17;16.40;99.90
41592;DHT22;28026;48.562;14.440;2022-07-10T09:56:49;17.30;99.90
41592;DHT22;28026;48.562;14.440;2022-07-10T09:59:26;18.20;99.90
41592;DHT22;28026;48.562;14.440;2022-07-10T10:02:02;19.00;99.90
41592;DHT22;28026;48.562;14.440;2022-07-10T10:04:36;18.50;99.90
41592;DHT22;28026;48.562;14.440;2022-07-10T10:07:09;18.10;99.90
41592;DHT22;28026;48.562;14.440;2022-07-10T10:09:52;17.60;99.90
41592;DHT22;28026;48.562;14.440;2022-07-10T10:12:54;17.60;99.90
41592;DHT22;28026;48.562;14.440;2022-07-10T10:15:32;17.90;99.90
41592;DHT22;28026;48.562;14.440;2022-07-10T10:18:05;17.70;99.90
41592;DHT22;28026;48.562;14.440;2022-07-10T10:20:38;17.40;99.90
41592;DHT22;28026;48.562;14.440;2022-07-10T10:23:19;17.10;99.90
41592;DHT22;28026;48.562;14.440;2022-07-10T10:25:54;18.40;99.90
41592;DHT22;28026;48.562;14.440;2022-07-10T10:28:27;18.70;99.90
41592;DHT22;28026;48.562;14.440;2022-07-10T10:30:59;19.10;99.90
41592;DHT22;28026;48.562;14.440;2022-07-10T10:36:06;18.90;99.90
41592;DHT22;28026;48.562;14.440;2022-07-10T10:46:55;19.50;99.90
41592;DHT22;28026;48.562;14.440;2022-07-10T10:49:48;19.80;99.90
41592;DHT22;28026;48.562;14.440;2022-07-10T10:52:22;19.20;99.90
41592;DHT22;28026;48.562;14.440;2022-07-10T11:00:32;18.20;99.90
41592;DHT22;28026;48.562;14.440;2022-07-10T11:03:15;18.70;99.90
41592;DHT22;28026;48.562;14.440;2022-07-10T11:05:54;18.90;99.90
41592;DHT22;28026;48.562;14.440;2022-07-10T11:08:39;19.50;99.90
41592;DHT22;28026;48.562;14.440;2022-07-10T11:14:04;20.20;99.90
41592;DHT22;28026;48.562;14.440;2022-07-10T11:16:35;20.50;99.90
41592;DHT22;28026;48.562;14.440;2022-07-10T11:19:08;19.20;99.90
41592;DHT22;28026;48.562;14.440;2022-07-10T11:21:46;18.70;99.90
41592;DHT22;28026;48.562;14.440;2022-07-10T11:24:40;18.60;99.90
41592;DHT22;28026;48.562;14.440;2022-07-10T11:27:29;18.60;99.90
41592;DHT22;28026;48.562;14.440;2022-07-10T11:30:22;19.00;99.90
41592;DHT22;28026;48.562;14.440;2022-07-10T11:32:53;20.60;99.90
41592;DHT22;28026;48.562;14.440;2022-07-10T11:35:24;20.20;99.90
41592;DHT22;28026;48.562;14.440;2022-07-10T11:37:55;19.40;99.90
41592;DHT22;28026;48.562;14.440;2022-07-10T11:40:26;18.80;99.90
41592;DHT22;28026;48.562;14.440;2022-07-10T11:42:57;18.30;99.90
41592;DHT22;28026;48.562;14.440;2022-07-10T11:45:31;19.20;99.90
41592;DHT22;28026;48.562;14.440;2022-07-10T11:48:07;19.80;99.90
41592;DHT22;28026;48.562;14.440;2022-07-10T11:50:46;20.30;99.90
41592;DHT22;28026;48.562;14.440;2022-07-10T11:53:27;20.50;99.90
41592;DHT22;28026;48.562;14.440;2022-07-10T11:55:58;19.70;99.90
41592;DHT22;28026;48.562;14.440;2022-07-10T11:58:29;18.60;99.90
41592;DHT22;28026;48.562;14.440;2022-07-10T12:01:03;18.60;99.90
41592;DHT22;28026;48.562;14.440;2022-07-10T12:03:38;18.20;99.90
41592;DHT22;28026;48.562;14.440;2022-07-10T12:06:09;18.10;99.90
41592;DHT22;28026;48.562;14.440;2022-07-10T12:08:47;17.90;99.90
41592;DHT22;28026;48.562;14.440;2022-07-10T12:11:19;18.80;99.90
41592;DHT22;28026;48.562;14.440;2022-07-10T12:13:52;19.80;99.90
41592;DHT22;28026;48.562;14.440;2022-07-10T12:16:24;19.90;99.90
41592;DHT22;28026;48.562;14.440;2022-07-10T12:18:55;19.70;99.90
41592;DHT22;28026;48.562;14.440;2022-07-10T12:21:26;19.40;99.90
41592;DHT22;28026;48.562;14.440;2022-07-10T12:23:59;18.80;99.90
41592;DHT22;28026;48.562;14.440;2022-07-10T12:26:37;18.80;99.90
41592;DHT22;28026;48.562;14.440;2022-07-10T12:29:22;18.60;99.90
41592;DHT22;28026;48.562;14.440;2022-07-10T12:31:58;18.30;99.90
41592;DHT22;28026;48.562;14.440;2022-07-10T12:34:35;18.00;99.90
41592;DHT22;28026;48.562;14.440;2022-07-10T12:37:16;18.30;99.90
41592;DHT22;28026;48.562;14.440;2022-07-10T12:39:49;18.60;99.90
41592;DHT22;28026;48.562;14.440;2022-07-10T12:42:28;18.70;99.90
41592;DHT22;28026;48.562;14.440;2022-07-10T12:45:14;18.30;99.90
41592;DHT22;28026;48.562;14.440;2022-07-10T12:47:47;17.80;99.90
41592;DHT22;28026;48.562;14.440;2022-07-10T12:50:23;17.60;99.90
41592;DHT22;28026;48.562;14.440;2022-07-10T12:53:09;18.50;99.90
41592;DHT22;28026;48.562;14.440;2022-07-10T12:55:44;18.80;99.90
41592;DHT22;28026;48.562;14.440;2022-07-10T12:58:17;18.20;99.90
41592;DHT22;28026;48.562;14.440;2022-07-10T13:00:48;18.30;99.90
41592;DHT22;28026;48.562;14.440;2022-07-10T13:03:21;18.40;99.90
41592;DHT22;28026;48.562;14.440;2022-07-10T13:05:55;18.00;99.90
41592;DHT22;28026;48.562;14.440;2022-07-10T13:08:28;17.50;99.90
41592;DHT22;28026;48.562;14.440;2022-07-10T13:11:00;17.20;99.90
41592;DHT22;28026;48.562;14.440;2022-07-10T13:13:30;17.20;99.90
41592;DHT22;28026;48.562;14.440;2022-07-10T13:16:01;17.10;99.90
41592;DHT22;28026;48.562;14.440;2022-07-10T13:18:33;17.40;99.90
41592;DHT22;28026;48.562;14.440;2022-07-10T13:21:04;17.40;99.90
41592;DHT22;28026;48.562;14.440;2022-07-10T13:23:35;17.00;99.90
41592;DHT22;28026;48.562;14.440;2022-07-10T13:26:07;16.80;99.90
41592;DHT22;28026;48.562;14.440;2022-07-10T13:28:39;17.00;99.90
41592;DHT22;28026;48.562;14.440;2022-07-10T13:31:10;16.80;99.90
41592;DHT22;28026;48.562;14.440;2022-07-10T13:33:41;16.90;99.90
41592;DHT22;28026;48.562;14.440;2022-07-10T13:36:12;17.00;99.90
41592;DHT22;28026;48.562;14.440;2022-07-10T13:38:44;17.10;99.90
41592;DHT22;28026;48.562;14.440;2022-07-10T13:41:18;17.20;99.90
41592;DHT22;28026;48.562;14.440;2022-07-10T13:43:51;18.00;99.90
41592;DHT22;28026;48.562;14.440;2022-07-10T13:46:23;18.30;99.90
41592;DHT22;28026;48.562;14.440;2022-07-10T13:48:54;18.80;99.90
41592;DHT22;28026;48.562;14.440;2022-07-10T13:51:27;18.70;99.90
41592;DHT22;28026;48.562;14.440;2022-07-10T13:53:58;18.40;99.90
41592;DHT22;28026;48.562;14.440;2022-07-10T13:56:29;18.40;99.90
41592;DHT22;28026;48.562;14.440;2022-07-10T13:59:00;18.10;99.90
41592;DHT22;28026;48.562;14.440;2022-07-10T14:01:32;18.10;99.90
41592;DHT22;28026;48.562;14.440;2022-07-10T14:04:03;17.80;99.90
41592;DHT22;28026;48.562;14.440;2022-07-10T14:06:34;17.70;99.90
41592;DHT22;28026;48.562;14.440;2022-07-10T14:09:05;17.90;99.90
41592;DHT22;28026;48.562;14.440;2022-07-10T14:11:36;17.90;99.90
41592;DHT22;28026;48.562;14.440;2022-07-10T14:14:07;17.90;99.90
41592;DHT22;28026;48.562;14.440;2022-07-10T14:16:38;18.00;99.90
41592;DHT22;28026;48.562;14.440;2022-07-10T14:19:09;17.80;99.90
41592;DHT22;28026;48.562;14.440;2022-07-10T14:21:40;17.80;99.90
41592;DHT22;28026;48.562;14.440;2022-07-10T14:24:11;17.90;99.90
41592;DHT22;28026;48.562;14.440;2022-07-10T14:26:43;17.90;99.90
41592;DHT22;28026;48.562;14.440;2022-07-10T14:29:14;17.80;99.90
41592;DHT22;28026;48.562;14.440;2022-07-10T14:31:45;17.80;99.90
41592;DHT22;28026;48.562;14.440;2022-07-10T14:34:19;17.60;99.90
41592;DHT22;28026;48.562;14.440;2022-07-10T14:36:51;17.50;99.90
41592;DHT22;28026;48.562;14.440;2022-07-10T14:39:22;17.60;99.90
41592;DHT22;28026;48.562;14.440;2022-07-10T14:41:53;17.70;99.90
41592;DHT22;28026;48.562;14.440;2022-07-10T14:44:24;17.10;99.90
41592;DHT22;28026;48.562;14.440;2022-07-10T14:46:55;17.00;99.90
41592;DHT22;28026;48.562;14.440;2022-07-10T14:49:26;16.80;99.90
41592;DHT22;28026;48.562;14.440;2022-07-10T14:51:57;16.80;99.90
41592;DHT22;28026;48.562;14.440;2022-07-10T14:54:28;16.70;99.90
41592;DHT22;28026;48.562;14.440;2022-07-10T14:56:59;16.80;99.90
41592;DHT22;28026;48.562;14.440;2022-07-10T14:59:30;16.90;99.90
41592;DHT22;28026;48.562;14.440;2022-07-10T15:02:01;16.80;99.90
41592;DHT22;28026;48.562;14.440;2022-07-10T15:04:32;16.80;99.90
41592;DHT22;28026;48.562;14.440;2022-07-10T15:07:03;16.80;99.90
41592;DHT22;28026;48.562;14.440;2022-07-10T15:09:34;17.00;99.90
41592;DHT22;28026;48.562;14.440;2022-07-10T15:12:05;16.80;99.90
41592;DHT22;28026;48.562;14.440;2022-07-10T15:14:38;16.80;99.90
41592;DHT22;28026;48.562;14.440;2022-07-10T15:17:09;16.60;99.90
41592;DHT22;28026;48.562;14.440;2022-07-10T15:19:40;16.80;99.90
41592;DHT22;28026;48.562;14.440;2022-07-10T15:22:11;16.70;99.90
41592;DHT22;28026;48.562;14.440;2022-07-10T15:24:42;16.50;99.90
41592;DHT22;28026;48.562;14.440;2022-07-10T15:27:15;16.40;99.90
41592;DHT22;28026;48.562;14.440;2022-07-10T15:29:46;16.40;99.90
41592;DHT22;28026;48.562;14.440;2022-07-10T15:32:17;16.50;99.90
41592;DHT22;28026;48.562;14.440;2022-07-10T15:34:48;16.30;99.90
41592;DHT22;28026;48.562;14.440;2022-07-10T15:37:20;16.30;99.90
41592;DHT22;28026;48.562;14.440;2022-07-10T15:39:51;16.10;99.90
41592;DHT22;28026;48.562;14.440;2022-07-10T15:42:22;15.90;99.90
41592;DHT22;28026;48.562;14.440;2022-07-10T15:44:53;16.20;99.90
41592;DHT22;28026;48.562;14.440;2022-07-10T15:47:24;16.00;99.90
41592;DHT22;28026;48.562;14.440;2022-07-10T15:49:55;16.20;99.90
41592;DHT22;28026;48.562;14.440;2022-07-10T15:52:26;16.30;99.90
41592;DHT22;28026;48.562;14.440;2022-07-10T15:54:57;16.30;99.90
41592;DHT22;28026;48.562;14.440;2022-07-10T15:57:28;16.30;99.90
41592;DHT22;28026;48.562;14.440;2022-07-10T15:59:59;16.30;99.90
41592;DHT22;28026;48.562;14.440;2022-07-10T16:02:30;16.30;99.90
41592;DHT22;28026;48.562;14.440;2022-07-10T16:05:02;16.20;99.90
41592;DHT22;28026;48.562;14.440;2022-07-10T16:07:34;15.90;99.90
41592;DHT22;28026;48.562;14.440;2022-07-10T16:10:05;15.70;99.90